sensor_id;sensor_type;location;lat;lon;timestamp;P1;durP1;ratioP1;P2;durP2;ratioP2
19691;SDS011;42748;50.016;19.890;2023-04-24T00:01:13;14.63;;;9.55;;
19691;SDS011;42748;50.016;19.890;2023-04-24T00:03:41;14.77;;;9.77;;
19691;SDS011;42748;50.016;19.890;2023-04-24T00:06:08;16.08;;;9.65;;
19691;SDS011;42748;50.016;19.890;2023-04-24T00:08:36;13.88;;;8.70;;
19691;SDS011;42748;50.016;19.890;2023-04-24T00:11:03;13.02;;;8.35;;
19691;SDS011;42748;50.016;19.890;2023-04-24T00:13:31;12.23;;;8.27;;
19691;SDS011;42748;50.016;19.890;2023-04-24T00:15:58;12.27;;;7.63;;
19691;SDS011;42748;50.016;19.890;2023-04-24T00:18:26;16.05;;;7.78;;
19691;SDS011;42748;50.016;19.890;2023-04-24T00:20:53;12.43;;;8.05;;
19691;SDS011;42748;50.016;19.890;2023-04-24T00:23:21;15.30;;;8.20;;
19691;SDS011;42748;50.016;19.890;2023-04-24T00:25:48;13.38;;;7.28;;
19691;SDS011;42748;50.016;19.890;2023-04-24T00:28:16;10.93;;;7.78;;
19691;SDS011;42748;50.016;19.890;2023-04-24T00:30:43;11.63;;;7.53;;
19691;SDS011;42748;50.016;19.890;2023-04-24T00:33:10;13.35;;;8.60;;
19691;SDS011;42748;50.016;19.890;2023-04-24T00:35:38;13.60;;;8.40;;
19691;SDS011;42748;50.016;19.890;2023-04-24T00:38:06;15.40;;;8.63;;
19691;SDS011;42748;50.016;19.890;2023-04-24T00:40:33;13.73;;;8.52;;
19691;SDS011;42748;50.016;19.890;2023-04-24T00:43:01;17.00;;;9.45;;
19691;SDS011;42748;50.016;19.890;2023-04-24T00:45:28;14.60;;;9.05;;
19691;SDS011;42748;50.016;19.890;2023-04-24T00:47:57;14.68;;;9.48;;
19691;SDS011;42748;50.016;19.890;2023-04-24T00:50:25;12.23;;;9.25;;
19691;SDS011;42748;50.016;19.890;2023-04-24T00:52:52;14.80;;;9.73;;
19691;SDS011;42748;50.016;19.890;2023-04-24T00:55:20;13.80;;;9.75;;
19691;SDS011;42748;50.016;19.890;2023-04-24T00:57:48;17.90;;;9.80;;
19691;SDS011;42748;50.016;19.890;2023-04-24T01:00:15;15.30;;;9.50;;
19691;SDS011;42748;50.016;19.890;2023-04-24T01:02:43;19.58;;;10.32;;
19691;SDS011;42748;50.016;19.890;2023-04-24T01:05:12;15.05;;;10.38;;
19691;SDS011;42748;50.016;19.890;2023-04-24T01:07:43;16.38;;;9.13;;
19691;SDS011;42748;50.016;19.890;2023-04-24T01:10:12;14.75;;;7.28;;
19691;SDS011;42748;50.016;19.890;2023-04-24T01:16:58;12.18;;;7.75;;
19691;SDS011;42748;50.016;19.890;2023-04-24T01:19:27;14.05;;;7.10;;
19691;SDS011;42748;50.016;19.890;2023-04-24T01:21:57;12.00;;;6.72;;
19691;SDS011;42748;50.016;19.890;2023-04-24T01:24:25;11.02;;;7.40;;
19691;SDS011;42748;50.016;19.890;2023-04-24T01:26:52;11.55;;;7.38;;
19691;SDS011;42748;50.016;19.890;2023-04-24T01:29:20;12.20;;;7.15;;
19691;SDS011;42748;50.016;19.890;2023-04-24T01:31:47;12.20;;;7.25;;
19691;SDS011;42748;50.016;19.890;2023-04-24T01:34:15;10.50;;;6.70;;
19691;SDS011;42748;50.016;19.890;2023-04-24T01:36:43;10.88;;;7.38;;
19691;SDS011;42748;50.016;19.890;2023-04-24T01:39:13;11.70;;;7.00;;
19691;SDS011;42748;50.016;19.890;2023-04-24T01:41:42;12.27;;;7.47;;
19691;SDS011;42748;50.016;19.890;2023-04-24T01:44:10;11.60;;;6.90;;
19691;SDS011;42748;50.016;19.890;2023-04-24T01:46:37;10.07;;;7.07;;
19691;SDS011;42748;50.016;19.890;2023-04-24T01:49:05;13.35;;;6.82;;
19691;SDS011;42748;50.016;19.890;2023-04-24T01:51:32;12.00;;;7.57;;
19691;SDS011;42748;50.016;19.890;2023-04-24T01:54:00;10.95;;;6.88;;
19691;SDS011;42748;50.016;19.890;2023-04-24T01:56:31;18.27;;;7.20;;
19691;SDS011;42748;50.016;19.890;2023-04-24T01:59:00;11.63;;;6.60;;
19691;SDS011;42748;50.016;19.890;2023-04-24T02:01:31;11.30;;;7.00;;
19691;SDS011;42748;50.016;19.890;2023-04-24T02:03:59;11.43;;;7.30;;
19691;SDS011;42748;50.016;19.890;2023-04-24T02:06:27;14.18;;;7.13;;
19691;SDS011;42748;50.016;19.890;2023-04-24T02:08:55;13.02;;;7.70;;
19691;SDS011;42748;50.016;19.890;2023-04-24T02:11:22;11.40;;;6.72;;
19691;SDS011;42748;50.016;19.890;2023-04-24T02:13:50;11.13;;;7.20;;
19691;SDS011;42748;50.016;19.890;2023-04-24T02:16:18;9.90;;;6.85;;
19691;SDS011;42748;50.016;19.890;2023-04-24T02:18:45;10.13;;;7.10;;
19691;SDS011;42748;50.016;19.890;2023-04-24T02:21:13;10.98;;;6.80;;
19691;SDS011;42748;50.016;19.890;2023-04-24T02:23:40;12.23;;;6.57;;
19691;SDS011;42748;50.016;19.890;2023-04-24T02:26:08;12.27;;;6.65;;
19691;SDS011;42748;50.016;19.890;2023-04-24T02:28:36;13.15;;;6.57;;
19691;SDS011;42748;50.016;19.890;2023-04-24T02:31:03;10.77;;;6.75;;
19691;SDS011;42748;50.016;19.890;2023-04-24T02:33:32;10.82;;;6.70;;
19691;SDS011;42748;50.016;19.890;2023-04-24T02:36:00;10.48;;;6.40;;
19691;SDS011;42748;50.016;19.890;2023-04-24T02:38:27;10.60;;;6.78;;
19691;SDS011;42748;50.016;19.890;2023-04-24T02:40:55;11.20;;;6.20;;
19691;SDS011;42748;50.016;19.890;2023-04-24T02:43:25;10.38;;;6.70;;
19691;SDS011;42748;50.016;19.890;2023-04-24T02:45:52;11.40;;;6.97;;
19691;SDS011;42748;50.016;19.890;2023-04-24T02:48:20;14.55;;;6.93;;
19691;SDS011;42748;50.016;19.890;2023-04-24T02:50:47;10.25;;;6.85;;
19691;SDS011;42748;50.016;19.890;2023-04-24T02:53:15;9.05;;;6.07;;
19691;SDS011;42748;50.016;19.890;2023-04-24T02:55:42;10.82;;;6.50;;
19691;SDS011;42748;50.016;19.890;2023-04-24T03:02:28;13.20;;;6.78;;
19691;SDS011;42748;50.016;19.890;2023-04-24T03:04:56;10.60;;;6.45;;
19691;SDS011;42748;50.016;19.890;2023-04-24T03:07:23;10.77;;;6.10;;
19691;SDS011;42748;50.016;19.890;2023-04-24T03:09:51;9.88;;;6.50;;
19691;SDS011;42748;50.016;19.890;2023-04-24T03:16:36;11.85;;;6.78;;
19691;SDS011;42748;50.016;19.890;2023-04-24T03:19:05;10.40;;;6.57;;
19691;SDS011;42748;50.016;19.890;2023-04-24T03:21:40;14.55;;;6.88;;
19691;SDS011;42748;50.016;19.890;2023-04-24T03:24:08;10.50;;;6.15;;
19691;SDS011;42748;50.016;19.890;2023-04-24T03:26:36;11.50;;;6.88;;
19691;SDS011;42748;50.016;19.890;2023-04-24T03:29:16;10.63;;;6.43;;
19691;SDS011;42748;50.016;19.890;2023-04-24T03:31:44;9.27;;;6.32;;
19691;SDS011;42748;50.016;19.890;2023-04-24T03:34:11;10.00;;;6.55;;
19691;SDS011;42748;50.016;19.890;2023-04-24T03:36:39;10.18;;;6.18;;
19691;SDS011;42748;50.016;19.890;2023-04-24T03:39:07;9.85;;;6.28;;
19691;SDS011;42748;50.016;19.890;2023-04-24T03:41:37;9.57;;;6.32;;
19691;SDS011;42748;50.016;19.890;2023-04-24T03:44:11;10.95;;;6.75;;
19691;SDS011;42748;50.016;19.890;2023-04-24T03:46:39;11.20;;;6.25;;
19691;SDS011;42748;50.016;19.890;2023-04-24T03:49:08;9.63;;;6.50;;
19691;SDS011;42748;50.016;19.890;2023-04-24T03:51:39;11.00;;;7.13;;
19691;SDS011;42748;50.016;19.890;2023-04-24T03:54:16;10.57;;;6.20;;
19691;SDS011;42748;50.016;19.890;2023-04-24T03:56:44;9.98;;;6.50;;
19691;SDS011;42748;50.016;19.890;2023-04-24T03:59:12;14.20;;;6.68;;
19691;SDS011;42748;50.016;19.890;2023-04-24T04:01:43;10.10;;;6.65;;
19691;SDS011;42748;50.016;19.890;2023-04-24T04:04:14;11.00;;;6.90;;
19691;SDS011;42748;50.016;19.890;2023-04-24T04:06:43;10.98;;;6.60;;
19691;SDS011;42748;50.016;19.890;2023-04-24T04:09:11;11.07;;;6.97;;
19691;SDS011;42748;50.016;19.890;2023-04-24T04:11:38;17.20;;;7.40;;
19691;SDS011;42748;50.016;19.890;2023-04-24T04:14:06;15.35;;;7.55;;
19691;SDS011;42748;50.016;19.890;2023-04-24T04:16:37;18.08;;;7.90;;
19691;SDS011;42748;50.016;19.890;2023-04-24T04:19:06;12.52;;;7.47;;
19691;SDS011;42748;50.016;19.890;2023-04-24T04:21:33;15.05;;;7.60;;
19691;SDS011;42748;50.016;19.890;2023-04-24T04:24:11;12.55;;;8.10;;
19691;SDS011;42748;50.016;19.890;2023-04-24T04:26:43;15.25;;;8.48;;
19691;SDS011;42748;50.016;19.890;2023-04-24T04:29:22;17.17;;;9.23;;
19691;SDS011;42748;50.016;19.890;2023-04-24T04:31:50;14.95;;;8.85;;
19691;SDS011;42748;50.016;19.890;2023-04-24T04:34:20;17.60;;;9.38;;
19691;SDS011;42748;50.016;19.890;2023-04-24T04:36:48;20.10;;;9.90;;
19691;SDS011;42748;50.016;19.890;2023-04-24T04:39:26;18.80;;;9.70;;
19691;SDS011;42748;50.016;19.890;2023-04-24T04:42:00;19.83;;;10.38;;
19691;SDS011;42748;50.016;19.890;2023-04-24T04:44:35;22.50;;;10.18;;
19691;SDS011;42748;50.016;19.890;2023-04-24T04:47:04;18.02;;;10.57;;
19691;SDS011;42748;50.016;19.890;2023-04-24T04:49:34;18.92;;;10.75;;
19691;SDS011;42748;50.016;19.890;2023-04-24T04:52:05;19.95;;;10.75;;
19691;SDS011;42748;50.016;19.890;2023-04-24T04:54:33;21.60;;;10.60;;
19691;SDS011;42748;50.016;19.890;2023-04-24T04:57:00;26.45;;;11.10;;
19691;SDS011;42748;50.016;19.890;2023-04-24T04:59:30;20.05;;;7.93;;
19691;SDS011;42748;50.016;19.890;2023-04-24T05:02:03;13.23;;;8.02;;
19691;SDS011;42748;50.016;19.890;2023-04-24T05:04:31;19.30;;;9.95;;
19691;SDS011;42748;50.016;19.890;2023-04-24T05:06:59;23.55;;;11.32;;
19691;SDS011;42748;50.016;19.890;2023-04-24T05:09:30;22.48;;;11.25;;
19691;SDS011;42748;50.016;19.890;2023-04-24T05:12:01;19.23;;;10.85;;
19691;SDS011;42748;50.016;19.890;2023-04-24T05:14:33;20.67;;;11.02;;
19691;SDS011;42748;50.016;19.890;2023-04-24T05:17:01;22.42;;;10.80;;
19691;SDS011;42748;50.016;19.890;2023-04-24T05:19:30;21.90;;;10.88;;
19691;SDS011;42748;50.016;19.890;2023-04-24T05:22:02;20.58;;;11.23;;
19691;SDS011;42748;50.016;19.890;2023-04-24T05:24:37;18.42;;;11.15;;
19691;SDS011;42748;50.016;19.890;2023-04-24T05:27:27;19.45;;;10.25;;
19691;SDS011;42748;50.016;19.890;2023-04-24T05:29:54;16.88;;;10.05;;
19691;SDS011;42748;50.016;19.890;2023-04-24T05:32:22;15.10;;;9.82;;
19691;SDS011;42748;50.016;19.890;2023-04-24T05:34:50;15.85;;;8.93;;
19691;SDS011;42748;50.016;19.890;2023-04-24T05:37:18;13.65;;;8.85;;
19691;SDS011;42748;50.016;19.890;2023-04-24T05:39:46;16.23;;;9.23;;
19691;SDS011;42748;50.016;19.890;2023-04-24T05:42:13;18.58;;;9.70;;
19691;SDS011;42748;50.016;19.890;2023-04-24T05:44:41;16.70;;;9.80;;
19691;SDS011;42748;50.016;19.890;2023-04-24T05:47:08;18.00;;;9.98;;
19691;SDS011;42748;50.016;19.890;2023-04-24T05:49:36;15.63;;;9.70;;
19691;SDS011;42748;50.016;19.890;2023-04-24T05:52:04;17.00;;;9.32;;
19691;SDS011;42748;50.016;19.890;2023-04-24T05:54:37;12.95;;;9.10;;
19691;SDS011;42748;50.016;19.890;2023-04-24T05:57:05;18.08;;;9.68;;
19691;SDS011;42748;50.016;19.890;2023-04-24T06:04:05;20.75;;;11.50;;
19691;SDS011;42748;50.016;19.890;2023-04-24T06:06:34;30.35;;;11.52;;
19691;SDS011;42748;50.016;19.890;2023-04-24T06:09:03;26.25;;;12.18;;
19691;SDS011;42748;50.016;19.890;2023-04-24T06:11:31;22.50;;;12.23;;
19691;SDS011;42748;50.016;19.890;2023-04-24T06:18:07;21.67;;;11.50;;
19691;SDS011;42748;50.016;19.890;2023-04-24T06:20:38;20.60;;;10.20;;
19691;SDS011;42748;50.016;19.890;2023-04-24T06:23:08;19.33;;;10.82;;
19691;SDS011;42748;50.016;19.890;2023-04-24T06:25:35;22.48;;;10.85;;
19691;SDS011;42748;50.016;19.890;2023-04-24T06:28:03;23.33;;;10.68;;
19691;SDS011;42748;50.016;19.890;2023-04-24T06:30:31;18.20;;;8.93;;
19691;SDS011;42748;50.016;19.890;2023-04-24T06:32:58;18.40;;;10.40;;
19691;SDS011;42748;50.016;19.890;2023-04-24T06:35:44;22.60;;;10.77;;
19691;SDS011;42748;50.016;19.890;2023-04-24T06:38:11;16.77;;;9.38;;
19691;SDS011;42748;50.016;19.890;2023-04-24T06:40:39;21.45;;;10.80;;
19691;SDS011;42748;50.016;19.890;2023-04-24T06:43:06;21.35;;;11.35;;
19691;SDS011;42748;50.016;19.890;2023-04-24T06:45:34;25.05;;;11.35;;
19691;SDS011;42748;50.016;19.890;2023-04-24T06:48:01;24.58;;;11.15;;
19691;SDS011;42748;50.016;19.890;2023-04-24T06:50:29;23.88;;;10.15;;
19691;SDS011;42748;50.016;19.890;2023-04-24T06:52:57;13.38;;;7.07;;
19691;SDS011;42748;50.016;19.890;2023-04-24T06:55:24;10.10;;;7.10;;
19691;SDS011;42748;50.016;19.890;2023-04-24T06:57:52;10.77;;;6.53;;
19691;SDS011;42748;50.016;19.890;2023-04-24T07:00:19;11.52;;;6.50;;
19691;SDS011;42748;50.016;19.890;2023-04-24T07:02:47;10.43;;;6.82;;
19691;SDS011;42748;50.016;19.890;2023-04-24T07:05:15;10.88;;;6.97;;
19691;SDS011;42748;50.016;19.890;2023-04-24T07:07:49;11.80;;;6.97;;
19691;SDS011;42748;50.016;19.890;2023-04-24T07:10:17;9.93;;;7.20;;
19691;SDS011;42748;50.016;19.890;2023-04-24T07:12:45;8.65;;;6.95;;
19691;SDS011;42748;50.016;19.890;2023-04-24T07:15:13;9.65;;;6.45;;
19691;SDS011;42748;50.016;19.890;2023-04-24T07:17:40;12.43;;;6.55;;
19691;SDS011;42748;50.016;19.890;2023-04-24T07:20:11;8.98;;;6.85;;
19691;SDS011;42748;50.016;19.890;2023-04-24T07:22:40;8.40;;;6.75;;
19691;SDS011;42748;50.016;19.890;2023-04-24T07:25:08;8.30;;;6.47;;
19691;SDS011;42748;50.016;19.890;2023-04-24T07:27:35;13.05;;;7.15;;
19691;SDS011;42748;50.016;19.890;2023-04-24T07:34:11;11.88;;;7.03;;
19691;SDS011;42748;50.016;19.890;2023-04-24T07:36:39;10.32;;;6.85;;
19691;SDS011;42748;50.016;19.890;2023-04-24T07:39:07;9.30;;;6.63;;
19691;SDS011;42748;50.016;19.890;2023-04-24T07:41:35;10.90;;;6.80;;
19691;SDS011;42748;50.016;19.890;2023-04-24T07:44:02;9.80;;;6.72;;
19691;SDS011;42748;50.016;19.890;2023-04-24T07:46:30;8.73;;;6.75;;
19691;SDS011;42748;50.016;19.890;2023-04-24T07:48:58;13.38;;;6.65;;
19691;SDS011;42748;50.016;19.890;2023-04-24T07:51:39;12.80;;;7.00;;
19691;SDS011;42748;50.016;19.890;2023-04-24T07:54:06;8.90;;;6.82;;
19691;SDS011;42748;50.016;19.890;2023-04-24T07:56:34;8.30;;;6.70;;
19691;SDS011;42748;50.016;19.890;2023-04-24T07:59:05;8.30;;;6.68;;
19691;SDS011;42748;50.016;19.890;2023-04-24T08:01:33;9.23;;;6.68;;
19691;SDS011;42748;50.016;19.890;2023-04-24T08:04:00;10.25;;;6.28;;
19691;SDS011;42748;50.016;19.890;2023-04-24T08:06:28;10.20;;;5.80;;
19691;SDS011;42748;50.016;19.890;2023-04-24T08:08:57;9.48;;;6.78;;
19691;SDS011;42748;50.016;19.890;2023-04-24T08:11:25;9.30;;;6.53;;
19691;SDS011;42748;50.016;19.890;2023-04-24T08:13:53;7.30;;;6.32;;
19691;SDS011;42748;50.016;19.890;2023-04-24T08:16:21;8.68;;;6.53;;
19691;SDS011;42748;50.016;19.890;2023-04-24T08:18:50;9.35;;;7.20;;
19691;SDS011;42748;50.016;19.890;2023-04-24T08:21:18;9.75;;;6.50;;
19691;SDS011;42748;50.016;19.890;2023-04-24T08:23:46;13.27;;;6.57;;
19691;SDS011;42748;50.016;19.890;2023-04-24T08:26:14;11.13;;;6.38;;
19691;SDS011;42748;50.016;19.890;2023-04-24T08:28:42;10.30;;;5.97;;
19691;SDS011;42748;50.016;19.890;2023-04-24T08:31:09;7.05;;;5.53;;
19691;SDS011;42748;50.016;19.890;2023-04-24T08:33:37;11.63;;;6.25;;
19691;SDS011;42748;50.016;19.890;2023-04-24T08:36:04;8.27;;;6.30;;
19691;SDS011;42748;50.016;19.890;2023-04-24T08:38:32;8.38;;;6.18;;
19691;SDS011;42748;50.016;19.890;2023-04-24T08:41:10;8.98;;;6.30;;
19691;SDS011;42748;50.016;19.890;2023-04-24T08:43:38;11.18;;;6.80;;
19691;SDS011;42748;50.016;19.890;2023-04-24T08:46:05;8.57;;;6.00;;
19691;SDS011;42748;50.016;19.890;2023-04-24T08:48:37;8.20;;;5.90;;
19691;SDS011;42748;50.016;19.890;2023-04-24T08:51:08;11.73;;;6.10;;
19691;SDS011;42748;50.016;19.890;2023-04-24T08:53:36;8.80;;;6.03;;
19691;SDS011;42748;50.016;19.890;2023-04-24T08:56:04;8.38;;;6.10;;
19691;SDS011;42748;50.016;19.890;2023-04-24T08:58:31;9.50;;;6.07;;
19691;SDS011;42748;50.016;19.890;2023-04-24T09:00:58;9.50;;;6.28;;
19691;SDS011;42748;50.016;19.890;2023-04-24T09:03:27;10.35;;;6.30;;
19691;SDS011;42748;50.016;19.890;2023-04-24T09:05:56;8.65;;;6.40;;
19691;SDS011;42748;50.016;19.890;2023-04-24T09:08:25;10.25;;;6.22;;
19691;SDS011;42748;50.016;19.890;2023-04-24T09:10:52;7.68;;;6.18;;
19691;SDS011;42748;50.016;19.890;2023-04-24T09:13:20;10.20;;;6.45;;
19691;SDS011;42748;50.016;19.890;2023-04-24T09:15:48;9.95;;;6.80;;
19691;SDS011;42748;50.016;19.890;2023-04-24T09:18:15;9.13;;;6.35;;
19691;SDS011;42748;50.016;19.890;2023-04-24T09:23:30;8.65;;;5.47;;
19691;SDS011;42748;50.016;19.890;2023-04-24T09:25:58;10.45;;;5.38;;
19691;SDS011;42748;50.016;19.890;2023-04-24T09:28:29;10.43;;;5.90;;
19691;SDS011;42748;50.016;19.890;2023-04-24T09:31:11;7.95;;;5.93;;
19691;SDS011;42748;50.016;19.890;2023-04-24T09:33:53;10.40;;;5.63;;
19691;SDS011;42748;50.016;19.890;2023-04-24T09:36:27;9.55;;;5.65;;
19691;SDS011;42748;50.016;19.890;2023-04-24T09:38:57;6.60;;;5.60;;
19691;SDS011;42748;50.016;19.890;2023-04-24T09:41:25;9.13;;;5.70;;
19691;SDS011;42748;50.016;19.890;2023-04-24T09:43:53;6.40;;;5.18;;
19691;SDS011;42748;50.016;19.890;2023-04-24T09:46:28;6.72;;;5.43;;
19691;SDS011;42748;50.016;19.890;2023-04-24T09:48:57;7.35;;;5.45;;
19691;SDS011;42748;50.016;19.890;2023-04-24T09:51:34;8.45;;;6.05;;
19691;SDS011;42748;50.016;19.890;2023-04-24T09:54:03;7.78;;;5.88;;
19691;SDS011;42748;50.016;19.890;2023-04-24T09:56:34;8.52;;;5.60;;
19691;SDS011;42748;50.016;19.890;2023-04-24T09:59:05;9.52;;;5.30;;
19691;SDS011;42748;50.016;19.890;2023-04-24T10:01:33;6.22;;;5.63;;
19691;SDS011;42748;50.016;19.890;2023-04-24T10:04:00;10.90;;;5.82;;
19691;SDS011;42748;50.016;19.890;2023-04-24T10:06:33;9.63;;;5.30;;
19691;SDS011;42748;50.016;19.890;2023-04-24T10:09:01;8.20;;;5.45;;
19691;SDS011;42748;50.016;19.890;2023-04-24T10:11:30;10.40;;;5.65;;
19691;SDS011;42748;50.016;19.890;2023-04-24T10:13:57;8.18;;;5.93;;
19691;SDS011;42748;50.016;19.890;2023-04-24T10:16:25;12.05;;;6.00;;
19691;SDS011;42748;50.016;19.890;2023-04-24T10:18:55;10.05;;;5.57;;
19691;SDS011;42748;50.016;19.890;2023-04-24T10:21:22;7.85;;;5.25;;
19691;SDS011;42748;50.016;19.890;2023-04-24T10:23:50;6.60;;;5.75;;
19691;SDS011;42748;50.016;19.890;2023-04-24T10:26:17;8.10;;;5.95;;
19691;SDS011;42748;50.016;19.890;2023-04-24T10:28:46;7.90;;;5.65;;
19691;SDS011;42748;50.016;19.890;2023-04-24T10:31:14;6.45;;;5.38;;
19691;SDS011;42748;50.016;19.890;2023-04-24T10:33:42;12.40;;;5.68;;
19691;SDS011;42748;50.016;19.890;2023-04-24T10:36:10;7.30;;;5.35;;
19691;SDS011;42748;50.016;19.890;2023-04-24T10:38:39;8.73;;;5.70;;
19691;SDS011;42748;50.016;19.890;2023-04-24T10:41:08;8.88;;;5.63;;
19691;SDS011;42748;50.016;19.890;2023-04-24T10:43:37;8.45;;;5.90;;
19691;SDS011;42748;50.016;19.890;2023-04-24T10:46:07;9.18;;;5.57;;
19691;SDS011;42748;50.016;19.890;2023-04-24T10:48:41;7.47;;;5.68;;
19691;SDS011;42748;50.016;19.890;2023-04-24T10:51:14;6.60;;;5.63;;
19691;SDS011;42748;50.016;19.890;2023-04-24T10:53:42;8.25;;;5.35;;
19691;SDS011;42748;50.016;19.890;2023-04-24T10:56:09;7.13;;;5.60;;
19691;SDS011;42748;50.016;19.890;2023-04-24T10:58:38;7.95;;;5.85;;
19691;SDS011;42748;50.016;19.890;2023-04-24T11:01:06;7.88;;;5.63;;
19691;SDS011;42748;50.016;19.890;2023-04-24T11:03:34;8.07;;;6.13;;
19691;SDS011;42748;50.016;19.890;2023-04-24T11:06:07;9.52;;;5.72;;
19691;SDS011;42748;50.016;19.890;2023-04-24T11:08:39;11.45;;;5.53;;
19691;SDS011;42748;50.016;19.890;2023-04-24T11:18:51;7.80;;;5.50;;
19691;SDS011;42748;50.016;19.890;2023-04-24T11:21:21;8.05;;;5.80;;
19691;SDS011;42748;50.016;19.890;2023-04-24T11:23:49;10.95;;;5.50;;
19691;SDS011;42748;50.016;19.890;2023-04-24T11:28:45;7.32;;;5.20;;
19691;SDS011;42748;50.016;19.890;2023-04-24T11:34:05;7.28;;;5.22;;
19691;SDS011;42748;50.016;19.890;2023-04-24T11:36:33;9.82;;;5.47;;
19691;SDS011;42748;50.016;19.890;2023-04-24T11:39:01;8.45;;;5.13;;
19691;SDS011;42748;50.016;19.890;2023-04-24T11:41:29;7.82;;;5.03;;
19691;SDS011;42748;50.016;19.890;2023-04-24T11:43:57;6.20;;;5.40;;
19691;SDS011;42748;50.016;19.890;2023-04-24T11:46:28;8.55;;;5.63;;
19691;SDS011;42748;50.016;19.890;2023-04-24T11:48:56;8.88;;;5.88;;
19691;SDS011;42748;50.016;19.890;2023-04-24T11:51:25;8.25;;;5.25;;
19691;SDS011;42748;50.016;19.890;2023-04-24T11:54:02;8.43;;;6.00;;
19691;SDS011;42748;50.016;19.890;2023-04-24T11:56:34;6.40;;;5.05;;
19691;SDS011;42748;50.016;19.890;2023-04-24T11:59:03;8.73;;;5.18;;
19691;SDS011;42748;50.016;19.890;2023-04-24T12:01:47;7.45;;;5.25;;
19691;SDS011;42748;50.016;19.890;2023-04-24T12:04:16;9.35;;;5.65;;
19691;SDS011;42748;50.016;19.890;2023-04-24T12:07:02;8.45;;;5.30;;
19691;SDS011;42748;50.016;19.890;2023-04-24T12:09:42;6.78;;;5.03;;
19691;SDS011;42748;50.016;19.890;2023-04-24T12:12:16;6.57;;;4.97;;
19691;SDS011;42748;50.016;19.890;2023-04-24T12:14:44;6.47;;;4.72;;
19691;SDS011;42748;50.016;19.890;2023-04-24T12:17:12;7.90;;;5.13;;
19691;SDS011;42748;50.016;19.890;2023-04-24T12:19:44;8.82;;;5.35;;
19691;SDS011;42748;50.016;19.890;2023-04-24T12:22:12;6.88;;;5.07;;
19691;SDS011;42748;50.016;19.890;2023-04-24T12:27:30;9.40;;;5.10;;
19691;SDS011;42748;50.016;19.890;2023-04-24T12:29:58;10.45;;;5.13;;
19691;SDS011;42748;50.016;19.890;2023-04-24T12:32:26;7.78;;;5.45;;
19691;SDS011;42748;50.016;19.890;2023-04-24T12:34:54;17.15;;;7.97;;
19691;SDS011;42748;50.016;19.890;2023-04-24T12:37:23;12.95;;;8.25;;
19691;SDS011;42748;50.016;19.890;2023-04-24T12:39:58;16.73;;;8.50;;
19691;SDS011;42748;50.016;19.890;2023-04-24T12:42:27;10.90;;;7.70;;
19691;SDS011;42748;50.016;19.890;2023-04-24T12:44:58;18.63;;;8.63;;
19691;SDS011;42748;50.016;19.890;2023-04-24T12:47:27;14.40;;;8.07;;
19691;SDS011;42748;50.016;19.890;2023-04-24T12:49:55;17.80;;;8.15;;
19691;SDS011;42748;50.016;19.890;2023-04-24T12:52:23;16.75;;;8.25;;
19691;SDS011;42748;50.016;19.890;2023-04-24T12:54:52;15.48;;;8.40;;
19691;SDS011;42748;50.016;19.890;2023-04-24T12:57:21;17.48;;;8.07;;
19691;SDS011;42748;50.016;19.890;2023-04-24T12:59:48;11.40;;;7.72;;
19691;SDS011;42748;50.016;19.890;2023-04-24T13:02:16;15.05;;;7.80;;
19691;SDS011;42748;50.016;19.890;2023-04-24T13:04:45;13.00;;;7.80;;
19691;SDS011;42748;50.016;19.890;2023-04-24T13:07:13;10.95;;;7.60;;
19691;SDS011;42748;50.016;19.890;2023-04-24T13:09:41;12.18;;;6.63;;
19691;SDS011;42748;50.016;19.890;2023-04-24T13:12:09;7.93;;;5.60;;
19691;SDS011;42748;50.016;19.890;2023-04-24T13:14:37;7.70;;;5.43;;
19691;SDS011;42748;50.016;19.890;2023-04-24T13:17:05;11.50;;;5.75;;
19691;SDS011;42748;50.016;19.890;2023-04-24T13:19:36;7.72;;;5.18;;
19691;SDS011;42748;50.016;19.890;2023-04-24T13:22:04;11.55;;;5.88;;
19691;SDS011;42748;50.016;19.890;2023-04-24T13:24:32;7.88;;;4.90;;
19691;SDS011;42748;50.016;19.890;2023-04-24T13:27:00;7.40;;;4.97;;
19691;SDS011;42748;50.016;19.890;2023-04-24T13:29:28;8.68;;;5.30;;
19691;SDS011;42748;50.016;19.890;2023-04-24T13:31:56;8.63;;;5.70;;
19691;SDS011;42748;50.016;19.890;2023-04-24T13:34:24;7.88;;;5.45;;
19691;SDS011;42748;50.016;19.890;2023-04-24T13:36:52;8.25;;;5.82;;
19691;SDS011;42748;50.016;19.890;2023-04-24T13:39:20;9.25;;;6.03;;
19691;SDS011;42748;50.016;19.890;2023-04-24T13:41:48;7.97;;;5.47;;
19691;SDS011;42748;50.016;19.890;2023-04-24T13:44:16;7.60;;;5.38;;
19691;SDS011;42748;50.016;19.890;2023-04-24T13:46:44;7.18;;;5.15;;
19691;SDS011;42748;50.016;19.890;2023-04-24T13:49:13;8.35;;;5.20;;
19691;SDS011;42748;50.016;19.890;2023-04-24T13:51:41;7.97;;;5.47;;
19691;SDS011;42748;50.016;19.890;2023-04-24T13:54:08;8.50;;;4.93;;
19691;SDS011;42748;50.016;19.890;2023-04-24T13:56:36;8.25;;;5.43;;
19691;SDS011;42748;50.016;19.890;2023-04-24T13:59:04;11.18;;;5.68;;
19691;SDS011;42748;50.016;19.890;2023-04-24T14:01:32;9.23;;;5.15;;
19691;SDS011;42748;50.016;19.890;2023-04-24T14:03:59;7.75;;;5.35;;
19691;SDS011;42748;50.016;19.890;2023-04-24T14:06:27;11.57;;;5.38;;
19691;SDS011;42748;50.016;19.890;2023-04-24T14:08:55;8.57;;;5.18;;
19691;SDS011;42748;50.016;19.890;2023-04-24T14:11:22;12.13;;;5.68;;
19691;SDS011;42748;50.016;19.890;2023-04-24T14:13:50;9.65;;;5.15;;
19691;SDS011;42748;50.016;19.890;2023-04-24T14:16:17;9.52;;;5.93;;
19691;SDS011;42748;50.016;19.890;2023-04-24T14:18:45;7.03;;;5.38;;
19691;SDS011;42748;50.016;19.890;2023-04-24T14:21:12;8.27;;;5.65;;
19691;SDS011;42748;50.016;19.890;2023-04-24T14:23:40;10.88;;;5.60;;
19691;SDS011;42748;50.016;19.890;2023-04-24T14:26:08;11.50;;;6.15;;
19691;SDS011;42748;50.016;19.890;2023-04-24T14:28:35;8.45;;;5.80;;
19691;SDS011;42748;50.016;19.890;2023-04-24T14:31:03;10.85;;;5.82;;
19691;SDS011;42748;50.016;19.890;2023-04-24T14:33:31;8.85;;;5.57;;
19691;SDS011;42748;50.016;19.890;2023-04-24T14:35:58;10.73;;;5.63;;
19691;SDS011;42748;50.016;19.890;2023-04-24T14:38:26;8.15;;;4.90;;
19691;SDS011;42748;50.016;19.890;2023-04-24T14:40:53;8.85;;;4.78;;
19691;SDS011;42748;50.016;19.890;2023-04-24T14:43:33;6.47;;;4.05;;
19691;SDS011;42748;50.016;19.890;2023-04-24T14:46:02;4.05;;;3.65;;
19691;SDS011;42748;50.016;19.890;2023-04-24T14:48:29;6.30;;;3.50;;
19691;SDS011;42748;50.016;19.890;2023-04-24T14:50:57;4.72;;;3.20;;
19691;SDS011;42748;50.016;19.890;2023-04-24T14:53:24;4.57;;;3.10;;
19691;SDS011;42748;50.016;19.890;2023-04-24T14:55:53;8.60;;;3.50;;
19691;SDS011;42748;50.016;19.890;2023-04-24T14:58:20;4.88;;;3.40;;
19691;SDS011;42748;50.016;19.890;2023-04-24T15:00:48;5.82;;;3.80;;
19691;SDS011;42748;50.016;19.890;2023-04-24T15:03:20;4.53;;;3.40;;
19691;SDS011;42748;50.016;19.890;2023-04-24T15:05:49;5.90;;;3.35;;
19691;SDS011;42748;50.016;19.890;2023-04-24T15:08:17;5.03;;;3.50;;
19691;SDS011;42748;50.016;19.890;2023-04-24T15:10:44;4.38;;;3.47;;
19691;SDS011;42748;50.016;19.890;2023-04-24T15:13:12;6.50;;;3.50;;
19691;SDS011;42748;50.016;19.890;2023-04-24T15:15:39;6.00;;;3.20;;
19691;SDS011;42748;50.016;19.890;2023-04-24T15:18:08;6.30;;;3.20;;
19691;SDS011;42748;50.016;19.890;2023-04-24T15:20:38;6.32;;;4.05;;